Time;durP1;ratioP1;P1;durP2;ratioP2;P2;SDS_P1;SDS_P2;PMS_P1;PMS_P2;Temp;Humidity;BMP_temperature;BMP_pressure;BME280_temperature;BME280_humidity;BME280_pressure;Samples;Min_cycle;Max_cycle;Signal;HPM_P1;HPM_P2
2023/05/15 00:02:00;;;;;;;1.70;1.60;;;22.40;72.70;;;;;;5076580;28;21035;-83
2023/05/15 00:04:27;;;;;;;1.40;1.30;;;22.40;72.80;;;;;;5076482;28;20445;-89
2023/05/15 00:06:54;;;;;;;1.60;1.33;;;22.40;72.80;;;;;;5076526;28;21008;-82
2023/05/15 00:09:21;;;;;;;1.60;1.50;;;22.40;72.80;;;;;;5076253;28;20448;-83
2023/05/15 00:11:48;;;;;;;1.50;1.40;;;22.40;72.80;;;;;;5076347;28;20531;-86
2023/05/15 00:14:16;;;;;;;1.73;1.63;;;22.40;72.80;;;;;;5076248;28;21011;-82
2023/05/15 00:16:43;;;;;;;1.83;1.63;;;22.40;72.80;;;;;;5076293;28;20439;-82
2023/05/15 00:19:10;;;;;;;1.40;1.30;;;22.40;73.70;;;;;;5076280;28;20946;-86
2023/05/15 00:21:37;;;;;;;1.70;1.60;;;22.40;72.80;;;;;;5076214;28;21047;-89
2023/05/15 00:24:04;;;;;;;1.40;1.30;;;22.40;72.90;;;;;;5075937;28;20453;-88
2023/05/15 00:26:30;;;;;;;1.70;1.60;;;22.30;72.70;;;;;;5076108;28;20774;-82
2023/05/15 00:28:57;;;;;;;1.50;1.40;;;22.40;72.90;;;;;;5076150;28;20466;-83
2023/05/15 00:31:26;;;;;;;1.50;1.40;;;22.40;72.90;;;;;;5076008;28;20580;-89
2023/05/15 00:33:52;;;;;;;1.70;1.53;;;22.40;73.80;;;;;;5075935;28;20438;-82
2023/05/15 00:36:20;;;;;;;1.47;1.37;;;22.40;72.90;;;;;;5075996;28;20585;-82
2023/05/15 00:38:47;;;;;;;1.57;1.47;;;22.40;72.90;;;;;;5075807;28;20443;-85
2023/05/15 00:41:15;;;;;;;1.80;1.70;;;22.30;72.80;;;;;;5075886;28;20494;-88
2023/05/15 00:43:43;;;;;;;1.63;1.53;;;22.40;72.90;;;;;;5075595;28;20438;-81
2023/05/15 00:46:12;;;;;;;1.43;1.33;;;22.30;72.70;;;;;;5075753;28;21018;-82
2023/05/15 00:48:43;;;;;;;1.50;1.40;;;22.30;72.70;;;;;;5075814;28;20497;-87
2023/05/15 00:51:10;;;;;;;2.03;1.93;;;22.30;72.70;;;;;;5075009;28;20526;-81
2023/05/15 00:53:37;;;;;;;1.50;1.40;;;22.30;72.60;;;;;;5075554;28;20451;-82
2023/05/15 00:56:07;;;;;;;1.73;1.63;;;22.30;72.70;;;;;;5075650;28;20896;-82
2023/05/15 00:58:34;;;;;;;1.70;1.60;;;22.30;72.60;;;;;;5075456;28;21004;-82
2023/05/15 01:01:01;;;;;;;2.10;1.90;;;22.30;72.70;;;;;;5075410;28;21097;-80
2023/05/15 01:03:28;;;;;;;1.60;1.50;;;22.30;72.70;;;;;;5075441;28;20452;-81
2023/05/15 01:05:56;;;;;;;1.93;1.83;;;22.30;72.80;;;;;;5075237;28;20464;-81
2023/05/15 01:08:27;;;;;;;1.77;1.67;;;22.30;72.80;;;;;;5075360;28;20438;-81
2023/05/15 01:10:55;;;;;;;2.90;1.87;;;22.40;72.80;;;;;;5075244;28;20477;-87
2023/05/15 01:13:23;;;;;;;1.80;1.70;;;22.30;73.20;;;;;;5075151;28;20947;-81
2023/05/15 01:15:50;;;;;;;1.60;1.50;;;22.30;72.70;;;;;;5075086;28;20439;-87
2023/05/15 01:18:17;;;;;;;1.70;1.60;;;22.30;72.70;;;;;;5075207;28;20524;-82
2023/05/15 01:20:59;;;;;;;1.90;1.80;;;22.30;72.70;;;;;;5075086;28;20481;-88
2023/05/15 01:23:41;;;;;;;1.60;1.50;;;22.30;72.80;;;;;;5075094;28;20445;-82
2023/05/15 01:26:52;;;;;;;1.63;1.53;;;22.30;72.80;;;;;;5074978;28;20518;-82
2023/05/15 01:29:25;;;;;;;2.80;1.50;;;22.30;72.70;;;;;;5064394;28;20465;-82
2023/05/15 01:31:57;;;;;;;1.80;1.70;;;22.30;72.90;;;;;;5074844;28;20485;-81
2023/05/15 01:34:32;;;;;;;1.60;1.50;;;22.30;72.90;;;;;;5074808;28;20449;-82
2023/05/15 01:37:02;;;;;;;1.60;1.50;;;22.30;73.00;;;;;;5074851;28;20456;-82
2023/05/15 01:39:33;;;;;;;2.40;1.93;;;22.30;73.00;;;;;;5074774;28;20439;-82
2023/05/15 01:42:03;;;;;;;2.30;2.20;;;22.30;72.80;;;;;;5074833;28;20488;-88
2023/05/15 01:44:35;;;;;;;1.70;1.60;;;22.30;72.80;;;;;;5074546;28;20442;-86
2023/05/15 01:47:06;;;;;;;1.80;1.70;;;22.30;72.80;;;;;;5074647;28;20442;-82
2023/05/15 01:49:35;;;;;;;1.90;1.80;;;22.30;72.80;;;;;;5074692;28;20449;-87
2023/05/15 01:52:08;;;;;;;1.77;1.67;;;22.30;73.00;;;;;;5074388;28;20945;-82
2023/05/15 01:54:36;;;;;;;1.80;1.70;;;22.30;72.90;;;;;;5074482;28;20466;-82
2023/05/15 01:57:05;;;;;;;1.70;1.60;;;22.30;73.90;;;;;;5074595;28;20433;-82
2023/05/15 01:59:36;;;;;;;1.70;1.60;;;22.30;73.00;;;;;;5074217;28;20535;-82
2023/05/15 02:02:04;;;;;;;1.77;1.67;;;22.30;73.10;;;;;;5073263;28;20482;-81
2023/05/15 02:04:32;;;;;;;1.60;1.50;;;22.30;73.00;;;;;;5074104;28;20549;-81
2023/05/15 02:07:01;;;;;;;1.97;1.87;;;22.30;72.90;;;;;;5074144;28;20925;-88
2023/05/15 02:09:28;;;;;;;1.90;1.80;;;22.20;72.80;;;;;;5073954;28;20445;-81
2023/05/15 02:11:56;;;;;;;1.90;1.80;;;22.20;72.80;;;;;;5074043;28;20520;-87
2023/05/15 02:14:24;;;;;;;1.90;1.80;;;22.30;73.00;;;;;;5074079;28;20446;-81
2023/05/15 02:16:53;;;;;;;2.00;1.90;;;22.30;73.00;;;;;;5073986;28;20796;-85
2023/05/15 02:19:19;;;;;;;1.60;1.50;;;22.20;73.00;;;;;;5073971;28;20883;-81
2023/05/15 02:21:46;;;;;;;1.83;1.73;;;22.30;73.10;;;;;;5073446;28;20492;-81
2023/05/15 02:24:13;;;;;;;1.90;1.63;;;22.30;73.10;;;;;;5073880;28;20473;-88
2023/05/15 02:26:47;;;;;;;1.57;1.47;;;22.30;73.10;;;;;;5074072;28;20448;-81
2023/05/15 02:29:20;;;;;;;2.03;1.93;;;22.20;73.00;;;;;;5073661;28;20452;-81
2023/05/15 02:31:59;;;;;;;1.70;1.60;;;22.20;73.00;;;;;;5073798;28;20442;-83
2023/05/15 02:34:32;;;;;;;1.67;1.57;;;22.30;73.10;;;;;;5073780;28;20448;-81
2023/05/15 02:37:01;;;;;;;1.93;1.83;;;22.20;73.00;;;;;;5073680;28;20521;-87
2023/05/15 02:39:29;;;;;;;2.50;2.40;;;22.20;73.10;;;;;;5073646;28;20490;-81
2023/05/15 02:41:57;;;;;;;2.40;2.20;;;22.20;73.90;;;;;;5073358;28;20496;-81
2023/05/15 02:44:25;;;;;;;1.73;1.63;;;22.20;73.00;;;;;;5073515;28;20444;-83
2023/05/15 02:46:54;;;;;;;2.00;1.90;;;22.20;73.10;;;;;;5073348;28;20458;-82
2023/05/15 02:49:22;;;;;;;1.87;1.77;;;22.20;73.20;;;;;;5073524;28;20496;-82
2023/05/15 02:51:49;;;;;;;2.13;2.03;;;22.20;73.10;;;;;;5073410;28;20491;-88
2023/05/15 02:54:16;;;;;;;1.63;1.53;;;22.20;73.20;;;;;;5073669;28;20769;-81
2023/05/15 02:56:43;;;;;;;1.80;1.70;;;22.20;73.10;;;;;;5073299;28;20520;-81
2023/05/15 02:59:10;;;;;;;1.90;1.80;;;22.20;73.00;;;;;;5073235;28;20480;-88
2023/05/15 03:01:36;;;;;;;1.93;1.60;;;22.20;73.10;;;;;;5073131;28;20488;-81
2023/05/15 03:04:05;;;;;;;2.20;2.10;;;22.20;73.30;;;;;;5073357;28;20528;-86
2023/05/15 03:06:31;;;;;;;1.63;1.53;;;22.20;73.20;;;;;;5073361;28;20937;-88
2023/05/15 03:08:58;;;;;;;2.23;2.10;;;22.20;73.20;;;;;;5073225;28;20480;-89
2023/05/15 03:11:25;;;;;;;1.90;1.80;;;22.20;73.30;;;;;;5073174;28;20472;-82
2023/05/15 03:13:52;;;;;;;2.23;2.13;;;22.20;73.30;;;;;;5072865;28;20485;-83
2023/05/15 03:16:19;;;;;;;2.60;2.40;;;22.20;73.30;;;;;;5073275;28;20442;-82
2023/05/15 03:18:46;;;;;;;2.13;2.03;;;22.20;73.30;;;;;;5073124;28;20438;-82
2023/05/15 03:21:14;;;;;;;2.10;2.00;;;22.20;73.50;;;;;;5072942;28;20477;-83
2023/05/15 03:23:41;;;;;;;2.00;1.90;;;22.20;73.40;;;;;;5073051;28;20524;-83
2023/05/15 03:26:08;;;;;;;2.50;2.30;;;22.20;73.40;;;;;;5073013;28;20972;-82
2023/05/15 03:28:34;;;;;;;2.87;2.63;;;22.20;73.50;;;;;;5073108;28;20465;-88
2023/05/15 03:31:03;;;;;;;1.97;1.87;;;22.20;73.30;;;;;;5072970;28;20867;-82
2023/05/15 03:33:30;;;;;;;1.97;1.87;;;22.20;73.30;;;;;;5073035;28;20433;-83
2023/05/15 03:35:57;;;;;;;2.50;2.30;;;22.20;73.30;;;;;;5072949;28;20781;-82
2023/05/15 03:38:25;;;;;;;1.97;1.87;;;22.20;73.50;;;;;;5072865;28;20452;-86
2023/05/15 03:40:52;;;;;;;1.93;1.83;;;22.20;73.60;;;;;;5072923;28;20464;-83
2023/05/15 03:43:19;;;;;;;2.43;2.23;;;22.20;73.60;;;;;;5072830;28;20448;-82
2023/05/15 03:45:46;;;;;;;2.27;2.17;;;22.20;73.60;;;;;;5072893;28;20846;-89
2023/05/15 03:48:12;;;;;;;2.10;2.00;;;22.20;73.40;;;;;;5072881;28;20435;-82
2023/05/15 03:50:40;;;;;;;2.00;1.90;;;22.20;73.60;;;;;;5073003;28;20433;-82
2023/05/15 03:53:06;;;;;;;1.97;1.87;;;22.20;73.60;;;;;;5072771;28;20491;-82
2023/05/15 03:55:35;;;;;;;2.30;2.20;;;22.20;73.50;;;;;;5072698;28;20434;-81
2023/05/15 03:58:02;;;;;;;2.17;2.07;;;22.20;73.50;;;;;;5072617;28;20528;-82
2023/05/15 04:00:29;;;;;;;2.70;2.50;;;22.20;73.60;;;;;;5072887;28;20469;-82
2023/05/15 04:02:56;;;;;;;2.20;2.10;;;22.20;73.60;;;;;;5072433;28;20487;-83
2023/05/15 04:05:23;;;;;;;2.37;2.27;;;22.20;74.60;;;;;;5072812;28;21031;-82
2023/05/15 04:07:49;;;;;;;2.00;1.90;;;22.20;73.60;;;;;;5072845;28;20448;-82
2023/05/15 04:10:16;;;;;;;2.57;2.37;;;22.20;73.70;;;;;;5072688;28;20979;-82
2023/05/15 04:12:44;;;;;;;2.13;2.03;;;22.20;73.50;;;;;;5072605;28;20443;-83
2023/05/15 04:15:16;;;;;;;2.90;2.70;;;22.20;73.50;;;;;;5072606;28;20430;-82
2023/05/15 04:17:43;;;;;;;2.30;2.20;;;22.20;73.50;;;;;;5072622;28;20441;-82
2023/05/15 04:20:11;;;;;;;2.53;2.33;;;22.10;73.40;;;;;;5072538;28;20448;-82
2023/05/15 04:22:38;;;;;;;2.27;2.17;;;22.20;73.60;;;;;;5072347;28;20489;-82
2023/05/15 04:25:06;;;;;;;2.40;2.30;;;22.10;73.50;;;;;;5072946;28;20549;-82
2023/05/15 04:27:33;;;;;;;2.13;2.03;;;22.20;73.60;;;;;;5076011;28;20445;-82
2023/05/15 04:30:02;;;;;;;2.10;2.00;;;22.20;73.80;;;;;;5075910;28;20556;-82
2023/05/15 04:32:30;;;;;;;3.07;2.27;;;22.20;73.70;;;;;;5076070;28;20478;-82
2023/05/15 04:34:56;;;;;;;2.20;2.10;;;22.20;74.60;;;;;;5076010;28;20442;-82
2023/05/15 04:37:23;;;;;;;2.37;2.27;;;22.20;73.70;;;;;;5075905;28;20799;-82
2023/05/15 04:39:50;;;;;;;2.83;2.63;;;22.20;73.70;;;;;;5075895;28;20464;-82
2023/05/15 04:42:17;;;;;;;2.50;2.40;;;22.20;73.70;;;;;;5075541;28;20581;-82
2023/05/15 04:44:44;;;;;;;2.73;2.53;;;22.20;73.70;;;;;;5075734;28;20436;-82
2023/05/15 04:47:12;;;;;;;2.63;2.43;;;22.20;74.60;;;;;;5075682;28;20462;-82
2023/05/15 04:49:40;;;;;;;3.00;2.80;;;22.20;73.60;;;;;;5075722;28;20440;-82
2023/05/15 04:52:06;;;;;;;2.50;2.40;;;22.20;73.70;;;;;;5075874;28;20443;-82
2023/05/15 04:54:34;;;;;;;3.50;3.20;;;22.20;73.80;;;;;;5075715;28;20442;-82
2023/05/15 04:57:02;;;;;;;2.70;2.50;;;22.10;73.50;;;;;;5075518;28;20437;-82
2023/05/15 04:59:29;;;;;;;2.90;2.70;;;22.20;73.80;;;;;;5075473;28;20827;-82
2023/05/15 05:01:56;;;;;;;2.83;2.63;;;22.20;74.50;;;;;;5075335;28;20498;-82
2023/05/15 05:04:25;;;;;;;2.73;2.53;;;22.10;73.50;;;;;;5075608;28;20450;-82
2023/05/15 05:06:51;;;;;;;3.40;3.10;;;22.10;73.50;;;;;;5075375;28;20477;-82
2023/05/15 05:09:19;;;;;;;3.23;3.03;;;22.20;74.50;;;;;;5075244;28;20496;-82
2023/05/15 05:11:46;;;;;;;3.20;3.00;;;22.10;74.40;;;;;;5075282;28;20477;-82
2023/05/15 05:14:14;;;;;;;3.10;2.90;;;22.20;73.60;;;;;;5075310;28;20939;-82
2023/05/15 05:16:42;;;;;;;3.10;2.90;;;22.10;73.60;;;;;;5075246;28;20499;-83
2023/05/15 05:19:08;;;;;;;3.00;2.80;;;22.10;73.30;;;;;;5075368;28;21032;-83
2023/05/15 05:21:36;;;;;;;3.80;3.40;;;22.10;73.40;;;;;;5074844;28;20567;-82
2023/05/15 05:24:03;;;;;;;3.93;3.63;;;22.20;73.60;;;;;;5075082;28;20481;-83
2023/05/15 05:26:30;;;;;;;3.60;3.30;;;22.10;73.50;;;;;;5075097;28;20928;-83
2023/05/15 05:28:58;;;;;;;4.00;3.70;;;22.10;73.30;;;;;;5074866;28;20552;-81
2023/05/15 05:31:26;;;;;;;3.33;3.13;;;22.20;73.40;;;;;;5074817;28;20528;-85
2023/05/15 05:33:53;;;;;;;3.80;3.57;;;22.10;73.30;;;;;;5074870;28;20803;-83
2023/05/15 05:36:19;;;;;;;4.30;3.90;;;22.20;73.50;;;;;;5074576;28;20930;-83
2023/05/15 05:38:48;;;;;;;3.90;3.60;;;22.20;73.50;;;;;;5074705;28;20524;-83
2023/05/15 05:41:14;;;;;;;4.33;4.03;;;22.20;73.60;;;;;;5074596;28;20854;-83
2023/05/15 05:43:41;;;;;;;4.50;4.20;;;22.20;73.40;;;;;;5074605;28;20489;-83
2023/05/15 05:46:08;;;;;;;5.00;4.60;;;22.20;73.40;;;;;;5074643;28;20481;-89
2023/05/15 05:48:35;;;;;;;4.33;4.03;;;22.20;73.40;;;;;;5074588;28;20429;-83
2023/05/15 05:51:02;;;;;;;4.70;4.37;;;22.20;73.40;;;;;;5074490;28;20448;-82
2023/05/15 05:53:29;;;;;;;4.30;4.00;;;22.20;73.40;;;;;;5074477;28;20448;-85
2023/05/15 05:55:57;;;;;;;4.53;4.23;;;22.10;73.30;;;;;;5074478;28;20446;-83
2023/05/15 05:58:24;;;;;;;4.43;4.13;;;22.20;73.40;;;;;;5074199;28;20453;-83
2023/05/15 06:00:51;;;;;;;6.67;4.07;;;22.10;73.30;;;;;;5074219;28;20481;-83
2023/05/15 06:03:18;;;;;;;5.13;4.73;;;22.10;73.30;;;;;;5074048;28;20573;-83
2023/05/15 06:05:44;;;;;;;4.97;4.57;;;22.20;73.50;;;;;;5074267;28;20438;-83
2023/05/15 06:08:11;;;;;;;4.93;4.53;;;22.20;73.50;;;;;;5074421;28;20491;-83
2023/05/15 06:10:38;;;;;;;4.70;4.40;;;22.20;74.30;;;;;;5073962;28;20480;-83
2023/05/15 06:13:07;;;;;;;5.23;4.83;;;22.20;73.40;;;;;;5073849;28;20440;-83
2023/05/15 06:15:34;;;;;;;5.43;5.03;;;22.20;73.40;;;;;;5074065;28;20455;-83
2023/05/15 06:18:00;;;;;;;5.80;5.30;;;22.20;73.50;;;;;;5073996;28;20799;-83
2023/05/15 06:20:27;;;;;;;4.87;4.50;;;22.20;73.50;;;;;;5074070;28;20532;-89
2023/05/15 06:22:54;;;;;;;5.70;5.30;;;22.20;73.50;;;;;;5073677;28;20573;-83
2023/05/15 06:25:21;;;;;;;4.70;4.30;;;22.20;73.50;;;;;;5073683;28;20446;-83
2023/05/15 06:27:48;;;;;;;5.50;5.10;;;22.20;73.40;;;;;;5073689;28;20925;-83
2023/05/15 06:30:16;;;;;;;5.57;5.17;;;22.20;73.40;;;;;;5073734;28;20495;-82
2023/05/15 06:32:43;;;;;;;6.20;5.70;;;22.10;73.40;;;;;;5073643;28;20468;-82
2023/05/15 06:35:10;;;;;;;6.63;6.13;;;22.20;73.50;;;;;;5073684;28;20446;-82
2023/05/15 06:37:37;;;;;;;5.93;5.53;;;22.20;73.40;;;;;;5073689;28;20506;-82
2023/05/15 06:40:05;;;;;;;5.60;5.20;;;22.20;73.40;;;;;;5073461;28;20949;-82
2023/05/15 06:42:32;;;;;;;5.63;5.23;;;22.20;73.40;;;;;;5072032;28;20488;-82
2023/05/15 06:44:59;;;;;;;5.47;4.97;;;22.20;73.50;;;;;;5073766;28;20966;-88
2023/05/15 06:47:27;;;;;;;6.80;6.30;;;22.10;74.20;;;;;;5073480;28;20443;-82
2023/05/15 06:49:55;;;;;;;5.57;5.07;;;22.20;73.50;;;;;;5073261;28;20530;-82
2023/05/15 06:52:22;;;;;;;6.63;6.13;;;22.20;73.50;;;;;;5073539;28;20446;-82
2023/05/15 06:54:48;;;;;;;6.27;5.80;;;22.20;73.50;;;;;;5073417;28;20441;-82
2023/05/15 06:57:15;;;;;;;5.87;5.37;;;22.20;73.50;;;;;;5073447;28;20541;-82
2023/05/15 06:59:42;;;;;;;6.23;5.63;;;22.20;73.40;;;;;;5073444;28;20465;-82
2023/05/15 07:02:09;;;;;;;5.83;5.33;;;22.20;73.40;;;;;;5073094;28;20622;-82
2023/05/15 07:04:37;;;;;;;7.70;7.00;;;22.20;73.50;;;;;;5073334;28;20968;-83
2023/05/15 07:07:05;;;;;;;5.73;5.27;;;22.20;73.50;;;;;;5073226;28;20441;-82
2023/05/15 07:09:31;;;;;;;6.53;6.00;;;22.20;73.50;;;;;;5073084;28;20474;-81
2023/05/15 07:11:58;;;;;;;5.77;5.27;;;22.20;73.60;;;;;;5073231;28;20528;-82
2023/05/15 07:14:25;;;;;;;5.80;5.40;;;22.20;73.70;;;;;;5073241;28;20548;-82
2023/05/15 07:16:52;;;;;;;6.20;5.70;;;22.20;73.60;;;;;;5073229;28;20444;-85
2023/05/15 07:19:20;;;;;;;6.10;5.70;;;22.20;73.70;;;;;;5073532;28;20438;-84
2023/05/15 07:21:48;;;;;;;5.70;5.20;;;22.20;73.60;;;;;;5073032;28;20942;-88
2023/05/15 07:24:18;;;;;;;5.60;5.20;;;22.20;73.60;;;;;;5073160;28;20537;-82
2023/05/15 07:26:45;;;;;;;5.60;5.20;;;22.20;73.50;;;;;;5073297;28;20448;-82
2023/05/15 07:29:12;;;;;;;6.20;5.70;;;22.20;74.30;;;;;;5072920;28;20547;-82
2023/05/15 07:31:40;;;;;;;6.60;6.10;;;22.20;73.50;;;;;;5072938;28;20858;-83
2023/05/15 07:34:07;;;;;;;6.93;6.33;;;22.20;73.60;;;;;;5073031;28;20453;-82
2023/05/15 07:36:34;;;;;;;5.60;5.20;;;22.20;73.60;;;;;;5072987;28;20541;-82
2023/05/15 07:39:02;;;;;;;6.23;5.73;;;22.20;73.60;;;;;;5073111;28;20439;-82
2023/05/15 07:41:29;;;;;;;6.63;6.03;;;22.20;73.50;;;;;;5072802;28;20473;-82
2023/05/15 07:43:56;;;;;;;6.27;5.73;;;22.20;73.60;;;;;;5072678;28;20482;-83
2023/05/15 07:46:23;;;;;;;5.50;5.10;;;22.20;74.40;;;;;;5072790;28;20536;-83
2023/05/15 07:48:50;;;;;;;6.73;6.13;;;22.20;73.50;;;;;;5072810;28;20450;-83
2023/05/15 07:51:17;;;;;;;6.60;6.07;;;22.20;73.60;;;;;;5072818;28;20869;-83
2023/05/15 07:53:43;;;;;;;6.93;6.33;;;22.20;73.40;;;;;;5072765;28;20528;-82
2023/05/15 07:56:12;;;;;;;7.57;6.87;;;22.20;73.30;;;;;;5072767;28;20541;-83
2023/05/15 07:58:39;;;;;;;6.73;6.20;;;22.20;73.20;;;;;;5072542;28;20461;-84
2023/05/15 08:01:06;;;;;;;7.13;6.63;;;22.20;73.10;;;;;;5074822;28;20446;-82
2023/05/15 08:03:33;;;;;;;6.90;6.40;;;22.20;73.00;;;;;;5076750;28;20483;-83
2023/05/15 08:06:00;;;;;;;6.03;5.60;;;22.20;73.00;;;;;;5076443;28;20436;-87
2023/05/15 08:08:26;;;;;;;7.03;6.43;;;22.30;73.10;;;;;;5076599;28;20548;-88
2023/05/15 08:10:53;;;;;;;6.63;6.03;;;22.30;73.00;;;;;;5076262;28;20567;-82
2023/05/15 08:13:22;;;;;;;7.20;6.63;;;22.30;73.00;;;;;;5076445;28;20448;-83
2023/05/15 08:15:48;;;;;;;6.90;6.37;;;22.30;72.90;;;;;;5076372;28;20482;-83
2023/05/15 08:18:15;;;;;;;6.23;5.80;;;22.30;73.10;;;;;;5076432;28;20867;-82
2023/05/15 08:20:42;;;;;;;6.97;6.47;;;22.30;72.80;;;;;;5076424;28;20531;-83
2023/05/15 08:23:09;;;;;;;6.23;5.50;;;22.30;72.80;;;;;;5075907;28;20587;-83
2023/05/15 08:25:36;;;;;;;5.80;5.30;;;22.30;72.70;;;;;;5076479;28;20437;-83
2023/05/15 08:28:04;;;;;;;6.50;6.00;;;22.30;72.70;;;;;;5076319;28;20477;-83
2023/05/15 08:30:32;;;;;;;6.00;5.60;;;22.40;72.80;;;;;;5076061;28;20447;-83
2023/05/15 08:32:59;;;;;;;6.37;5.87;;;22.40;72.80;;;;;;5076139;28;20612;-83
2023/05/15 08:35:26;;;;;;;6.80;6.20;;;22.40;72.80;;;;;;5075981;28;20544;-84
2023/05/15 08:37:52;;;;;;;6.50;5.90;;;22.40;72.80;;;;;;5075930;28;20468;-83
2023/05/15 08:40:19;;;;;;;5.40;5.00;;;22.40;72.80;;;;;;5075930;28;20537;-83
2023/05/15 08:42:52;;;;;;;6.93;6.43;;;22.40;72.70;;;;;;5075547;28;20498;-83
2023/05/15 08:45:19;;;;;;;6.03;5.53;;;22.40;72.80;;;;;;5075879;28;20436;-83
2023/05/15 08:47:47;;;;;;;6.10;5.50;;;22.40;72.80;;;;;;5075827;28;20460;-83
2023/05/15 08:50:16;;;;;;;6.50;6.00;;;22.40;72.90;;;;;;5075671;28;20443;-83
2023/05/15 08:52:45;;;;;;;6.20;5.70;;;22.40;72.90;;;;;;5075570;28;20498;-83
2023/05/15 08:55:13;;;;;;;6.27;5.83;;;22.40;72.80;;;;;;5075594;28;20507;-82
2023/05/15 08:57:40;;;;;;;6.20;5.63;;;22.40;72.90;;;;;;5075631;28;20442;-82
2023/05/15 09:00:10;;;;;;;5.87;5.40;;;22.40;73.00;;;;;;5075610;28;20474;-87
2023/05/15 09:02:38;;;;;;;5.00;4.60;;;22.40;72.90;;;;;;5075318;28;20446;-83
2023/05/15 09:05:08;;;;;;;6.50;6.00;;;22.40;72.90;;;;;;5075527;28;21040;-84
2023/05/15 09:07:36;;;;;;;6.03;5.60;;;22.40;73.00;;;;;;5075554;28;20471;-82
2023/05/15 09:10:05;;;;;;;6.00;5.50;;;22.50;73.20;;;;;;5075312;28;20980;-82
2023/05/15 09:12:34;;;;;;;6.80;6.30;;;22.50;73.20;;;;;;5074499;28;20515;-82
2023/05/15 09:15:12;;;;;;;5.80;5.30;;;22.40;73.10;;;;;;5075386;28;20439;-82
2023/05/15 09:17:39;;;;;;;5.67;5.17;;;22.50;73.20;;;;;;5075135;28;20528;-83
2023/05/15 09:20:24;;;;;;;5.90;5.50;;;22.40;73.20;;;;;;5075234;28;20992;-83
2023/05/15 09:22:50;;;;;;;5.73;5.33;;;22.40;73.00;;;;;;5075016;28;21048;-82
2023/05/15 09:25:33;;;;;;;6.07;5.60;;;22.50;73.30;;;;;;5074740;28;20944;-82
2023/05/15 09:28:00;;;;;;;5.83;5.40;;;22.50;73.20;;;;;;5075007;28;20446;-83
2023/05/15 09:30:29;;;;;;;5.40;5.00;;;22.50;73.30;;;;;;5075017;28;20447;-82
2023/05/15 09:32:59;;;;;;;5.33;4.97;;;22.50;73.30;;;;;;5074826;28;20482;-83
2023/05/15 09:35:31;;;;;;;6.57;6.07;;;22.50;73.30;;;;;;5074763;28;20925;-82
2023/05/15 09:37:59;;;;;;;6.20;5.73;;;22.50;73.40;;;;;;5074775;28;20440;-83
2023/05/15 09:40:29;;;;;;;5.10;4.80;;;22.50;73.40;;;;;;5074700;28;20446;-83
2023/05/15 09:42:56;;;;;;;6.37;5.83;;;22.50;73.40;;;;;;5074470;28;20478;-83
2023/05/15 09:45:25;;;;;;;5.47;5.07;;;22.50;73.40;;;;;;5074670;28;20497;-83
2023/05/15 09:47:52;;;;;;;5.50;5.00;;;22.60;73.50;;;;;;5074823;28;20482;-84
2023/05/15 09:50:23;;;;;;;5.27;4.87;;;22.60;73.40;;;;;;5074662;28;20448;-83
2023/05/15 09:52:51;;;;;;;5.60;5.20;;;22.60;73.70;;;;;;5074554;28;20448;-83
2023/05/15 09:55:21;;;;;;;5.80;5.40;;;22.60;73.60;;;;;;5074531;28;20528;-83
2023/05/15 09:58:06;;;;;;;6.27;5.77;;;22.60;73.70;;;;;;5074330;28;20439;-83
2023/05/15 10:00:33;;;;;;;5.50;5.10;;;22.60;73.40;;;;;;5074301;28;20472;-83
2023/05/15 10:03:02;;;;;;;5.00;4.60;;;22.60;73.50;;;;;;5074084;28;20482;-83
2023/05/15 10:05:29;;;;;;;5.37;5.07;;;22.60;73.60;;;;;;5074283;28;20450;-84
2023/05/15 10:07:58;;;;;;;5.17;4.77;;;22.60;73.70;;;;;;5074093;28;20940;-82
2023/05/15 10:10:26;;;;;;;4.87;4.57;;;22.60;73.60;;;;;;5073878;28;20479;-86
2023/05/15 10:12:54;;;;;;;4.53;4.23;;;22.70;73.60;;;;;;5074211;28;20527;-82
2023/05/15 10:15:22;;;;;;;5.27;4.87;;;22.70;73.70;;;;;;5074096;28;20473;-82
2023/05/15 10:17:51;;;;;;;5.37;4.97;;;22.70;73.70;;;;;;5073743;28;20442;-82
2023/05/15 10:20:20;;;;;;;5.30;4.90;;;22.70;73.70;;;;;;5073962;28;20537;-82
2023/05/15 10:22:50;;;;;;;4.90;4.50;;;22.70;73.60;;;;;;5072909;28;20464;-82
2023/05/15 10:25:25;;;;;;;5.13;4.77;;;22.70;73.70;;;;;;5073872;28;20532;-89
2023/05/15 10:27:53;;;;;;;5.30;4.90;;;22.70;74.30;;;;;;5073926;28;20514;-84
2023/05/15 10:30:22;;;;;;;5.70;5.20;;;22.70;73.60;;;;;;5073924;28;20857;-83
2023/05/15 10:32:49;;;;;;;4.90;4.50;;;22.70;73.60;;;;;;5073784;28;20522;-83
2023/05/15 10:35:17;;;;;;;5.30;4.90;;;22.70;73.50;;;;;;5073678;28;20444;-83
2023/05/15 10:37:46;;;;;;;4.67;4.30;;;22.70;73.70;;;;;;5073635;28;20526;-83
2023/05/15 10:40:16;;;;;;;4.80;4.50;;;22.80;73.70;;;;;;5073472;28;20443;-83
2023/05/15 10:42:45;;;;;;;4.90;4.50;;;22.80;73.70;;;;;;5072355;28;20498;-83
2023/05/15 10:45:12;;;;;;;4.97;4.57;;;22.80;73.50;;;;;;5073460;28;20565;-84
2023/05/15 10:47:41;;;;;;;4.97;4.60;;;22.80;73.70;;;;;;5073482;28;20872;-83
2023/05/15 10:50:08;;;;;;;3.97;3.70;;;22.80;74.50;;;;;;5073487;28;20439;-83
2023/05/15 10:52:37;;;;;;;4.30;4.00;;;22.80;73.70;;;;;;5073226;28;20443;-88
2023/05/15 10:55:07;;;;;;;4.63;4.30;;;22.80;73.80;;;;;;5073298;28;20523;-83
2023/05/15 10:57:34;;;;;;;4.83;4.43;;;22.80;73.70;;;;;;5073304;28;20439;-83
2023/05/15 11:00:04;;;;;;;4.67;4.37;;;22.80;73.70;;;;;;5073323;28;20508;-83
2023/05/15 11:02:37;;;;;;;4.40;4.10;;;22.80;73.80;;;;;;5073600;28;20443;-83
2023/05/15 11:05:05;;;;;;;3.90;3.60;;;22.80;73.60;;;;;;5073236;28;20482;-83
2023/05/15 11:07:32;;;;;;;4.37;4.07;;;22.90;73.90;;;;;;5073289;28;20489;-83
2023/05/15 11:10:00;;;;;;;4.70;4.40;;;22.90;73.70;;;;;;5073141;28;20552;-83
2023/05/15 11:12:56;;;;;;;4.33;4.03;;;22.90;73.70;;;;;;5073224;28;20469;-83
2023/05/15 11:15:25;;;;;;;4.60;4.30;;;22.90;73.70;;;;;;5073549;28;20471;-83
2023/05/15 11:18:05;;;;;;;4.07;3.77;;;22.90;73.80;;;;;;5073148;28;20765;-83
2023/05/15 11:20:39;;;;;;;4.60;4.30;;;22.90;73.70;;;;;;5073181;28;20522;-83
2023/05/15 11:23:06;;;;;;;4.63;4.33;;;22.90;73.70;;;;;;5072912;28;20438;-82
2023/05/15 11:25:35;;;;;;;4.40;4.10;;;22.90;73.80;;;;;;5073214;28;21010;-82
2023/05/15 11:28:03;;;;;;;4.13;3.83;;;22.90;73.70;;;;;;5072909;28;20439;-83
2023/05/15 11:30:37;;;;;;;4.20;3.90;;;22.90;73.60;;;;;;5072958;28;20442;-83
2023/05/15 11:33:07;;;;;;;4.80;4.50;;;22.90;73.80;;;;;;5073044;28;20452;-83
2023/05/15 11:35:36;;;;;;;4.30;4.00;;;22.90;73.50;;;;;;5076505;28;20462;-83
2023/05/15 11:38:04;;;;;;;4.23;3.93;;;22.90;73.40;;;;;;5077354;28;20541;-83
2023/05/15 11:40:33;;;;;;;3.90;3.60;;;22.90;73.60;;;;;;5077077;28;20526;-83
2023/05/15 11:43:29;;;;;;;4.40;4.10;;;22.90;73.70;;;;;;5076850;28;20442;-83
2023/05/15 11:46:03;;;;;;;4.20;3.90;;;23.00;73.80;;;;;;5077098;28;20868;-88
2023/05/15 11:48:33;;;;;;;4.13;3.83;;;22.90;73.60;;;;;;5076894;28;20539;-83
2023/05/15 11:51:01;;;;;;;4.47;4.17;;;22.90;74.60;;;;;;5076846;28;20446;-83
2023/05/15 11:53:30;;;;;;;4.63;4.27;;;22.90;73.70;;;;;;5076869;28;20944;-83
2023/05/15 11:55:57;;;;;;;4.10;3.80;;;22.90;73.80;;;;;;5076785;28;20434;-86
2023/05/15 11:58:26;;;;;;;4.43;4.13;;;22.90;73.70;;;;;;5076600;28;20455;-83
2023/05/15 12:00:54;;;;;;;4.10;3.80;;;22.90;73.60;;;;;;5076562;28;20444;-84
2023/05/15 12:03:24;;;;;;;3.73;3.50;;;23.00;73.90;;;;;;5076121;28;20456;-84
2023/05/15 12:05:52;;;;;;;4.13;3.83;;;22.90;73.60;;;;;;5076786;28;20492;-83
2023/05/15 12:08:20;;;;;;;3.67;3.47;;;22.90;73.40;;;;;;5076541;28;20442;-83
2023/05/15 12:10:47;;;;;;;3.80;3.50;;;22.90;73.60;;;;;;5076263;28;20483;-83
2023/05/15 12:13:15;;;;;;;4.10;3.80;;;22.90;73.80;;;;;;5076719;28;20450;-83
2023/05/15 12:15:44;;;;;;;4.03;3.73;;;22.90;73.60;;;;;;5076427;28;20777;-83
2023/05/15 12:18:11;;;;;;;3.07;2.87;;;22.90;73.50;;;;;;5076387;28;20444;-84
2023/05/15 12:20:43;;;;;;;3.03;2.83;;;22.90;73.30;;;;;;5076413;28;20445;-83
2023/05/15 12:23:10;;;;;;;3.83;3.60;;;22.90;73.50;;;;;;5076209;28;20478;-83
2023/05/15 12:25:37;;;;;;;3.67;3.37;;;22.90;73.50;;;;;;5076056;28;20488;-84
2023/05/15 12:28:05;;;;;;;3.93;3.63;;;22.90;73.50;;;;;;5075940;28;20463;-82
2023/05/15 12:30:32;;;;;;;4.17;3.87;;;22.90;73.50;;;;;;5076116;28;20442;-83
2023/05/15 12:33:02;;;;;;;3.77;3.50;;;23.00;74.50;;;;;;5076121;28;20453;-84
2023/05/15 12:35:29;;;;;;;3.93;3.67;;;23.00;73.30;;;;;;5076092;28;20443;-84
2023/05/15 12:37:57;;;;;;;3.80;3.60;;;23.00;73.50;;;;;;5075968;28;20938;-88
2023/05/15 12:40:24;;;;;;;4.00;3.40;;;23.00;73.20;;;;;;5075949;28;20922;-84
2023/05/15 12:42:53;;;;;;;4.07;3.77;;;23.00;73.50;;;;;;5075751;28;21007;-84
2023/05/15 12:45:22;;;;;;;3.73;3.53;;;23.00;73.50;;;;;;5075308;28;20482;-84
2023/05/15 12:47:50;;;;;;;3.67;3.40;;;23.00;73.50;;;;;;5075447;28;20899;-85
2023/05/15 12:50:18;;;;;;;3.33;3.13;;;23.00;73.70;;;;;;5075718;28;20447;-83
2023/05/15 12:52:51;;;;;;;3.30;3.10;;;23.00;73.50;;;;;;5075786;28;20521;-85
2023/05/15 12:55:23;;;;;;;3.87;3.63;;;23.00;73.50;;;;;;5075620;28;20935;-84